sensor_id;sensor_type;location;lat;lon;timestamp;temperature;humidity
318;DHT22;146;53.448;10.228;2023-11-19T00:00:53;5.70;1.00
318;DHT22;146;53.448;10.228;2023-11-19T00:03:20;5.70;1.00
318;DHT22;146;53.448;10.228;2023-11-19T00:05:49;5.70;1.00
318;DHT22;146;53.448;10.228;2023-11-19T00:08:20;5.70;1.00
318;DHT22;146;53.448;10.228;2023-11-19T00:10:47;5.70;1.00
318;DHT22;146;53.448;10.228;2023-11-19T00:13:14;5.70;1.00
318;DHT22;146;53.448;10.228;2023-11-19T00:15:41;5.70;1.00
318;DHT22;146;53.448;10.228;2023-11-19T00:18:14;5.80;1.00
318;DHT22;146;53.448;10.228;2023-11-19T00:20:41;5.80;1.00
318;DHT22;146;53.448;10.228;2023-11-19T00:23:13;5.80;1.00
318;DHT22;146;53.448;10.228;2023-11-19T00:25:41;5.80;1.00
318;DHT22;146;53.448;10.228;2023-11-19T00:28:08;5.80;1.00
318;DHT22;146;53.448;10.228;2023-11-19T00:30:41;5.90;1.00
318;DHT22;146;53.448;10.228;2023-11-19T00:33:07;5.90;1.00
318;DHT22;146;53.448;10.228;2023-11-19T00:35:36;5.90;1.00
318;DHT22;146;53.448;10.228;2023-11-19T00:38:09;5.80;1.00
318;DHT22;146;53.448;10.228;2023-11-19T00:40:40;5.80;1.00
318;DHT22;146;53.448;10.228;2023-11-19T00:43:07;5.80;1.00
318;DHT22;146;53.448;10.228;2023-11-19T00:45:34;5.80;1.00
318;DHT22;146;53.448;10.228;2023-11-19T00:48:04;5.80;1.00
318;DHT22;146;53.448;10.228;2023-11-19T00:50:31;5.80;1.00
318;DHT22;146;53.448;10.228;2023-11-19T00:52:58;5.80;1.00
318;DHT22;146;53.448;10.228;2023-11-19T00:55:24;5.90;1.00
318;DHT22;146;53.448;10.228;2023-11-19T00:57:52;5.90;1.00
318;DHT22;146;53.448;10.228;2023-11-19T01:00:21;5.80;1.00
318;DHT22;146;53.448;10.228;2023-11-19T01:02:52;5.80;1.00
318;DHT22;146;53.448;10.228;2023-11-19T01:08:06;5.80;1.00
318;DHT22;146;53.448;10.228;2023-11-19T01:10:41;5.80;1.00
318;DHT22;146;53.448;10.228;2023-11-19T01:13:09;5.80;1.00
318;DHT22;146;53.448;10.228;2023-11-19T01:15:36;6.00;1.00
318;DHT22;146;53.448;10.228;2023-11-19T01:18:05;6.00;1.00
318;DHT22;146;53.448;10.228;2023-11-19T01:20:37;6.00;1.00
318;DHT22;146;53.448;10.228;2023-11-19T01:23:04;6.00;1.00
318;DHT22;146;53.448;10.228;2023-11-19T01:25:31;6.00;1.00
318;DHT22;146;53.448;10.228;2023-11-19T01:27:57;6.00;1.00
318;DHT22;146;53.448;10.228;2023-11-19T01:30:26;6.00;1.00
318;DHT22;146;53.448;10.228;2023-11-19T01:32:52;6.00;1.00
318;DHT22;146;53.448;10.228;2023-11-19T01:35:22;6.00;1.00
318;DHT22;146;53.448;10.228;2023-11-19T01:37:49;5.80;1.00
318;DHT22;146;53.448;10.228;2023-11-19T01:40:22;5.80;1.00
318;DHT22;146;53.448;10.228;2023-11-19T01:42:55;5.90;1.00
318;DHT22;146;53.448;10.228;2023-11-19T01:45:28;5.90;1.00
318;DHT22;146;53.448;10.228;2023-11-19T01:47:56;5.90;1.00
318;DHT22;146;53.448;10.228;2023-11-19T01:50:26;5.90;1.00
318;DHT22;146;53.448;10.228;2023-11-19T01:52:53;5.90;1.00
318;DHT22;146;53.448;10.228;2023-11-19T01:55:21;5.90;1.00
318;DHT22;146;53.448;10.228;2023-11-19T01:57:51;5.90;1.00
318;DHT22;146;53.448;10.228;2023-11-19T02:00:22;5.80;1.00
318;DHT22;146;53.448;10.228;2023-11-19T02:02:54;5.80;1.00
318;DHT22;146;53.448;10.228;2023-11-19T02:05:22;5.80;1.00
318;DHT22;146;53.448;10.228;2023-11-19T02:07:52;5.80;1.00
318;DHT22;146;53.448;10.228;2023-11-19T02:10:19;5.80;1.00
318;DHT22;146;53.448;10.228;2023-11-19T02:12:46;5.80;1.00
318;DHT22;146;53.448;10.228;2023-11-19T02:15:12;5.70;1.00
318;DHT22;146;53.448;10.228;2023-11-19T02:17:44;5.80;1.00
318;DHT22;146;53.448;10.228;2023-11-19T02:20:12;5.90;1.00
318;DHT22;146;53.448;10.228;2023-11-19T02:22:40;5.90;1.00
318;DHT22;146;53.448;10.228;2023-11-19T02:25:10;5.90;1.00
318;DHT22;146;53.448;10.228;2023-11-19T02:27:53;5.90;1.00
318;DHT22;146;53.448;10.228;2023-11-19T02:30:25;6.00;1.00
318;DHT22;146;53.448;10.228;2023-11-19T02:32:59;6.10;1.00
318;DHT22;146;53.448;10.228;2023-11-19T02:35:31;6.10;1.00
318;DHT22;146;53.448;10.228;2023-11-19T02:38:05;6.10;1.00
318;DHT22;146;53.448;10.228;2023-11-19T02:40:35;6.10;1.00
318;DHT22;146;53.448;10.228;2023-11-19T02:43:03;6.10;1.00
318;DHT22;146;53.448;10.228;2023-11-19T02:45:30;6.10;1.00
318;DHT22;146;53.448;10.228;2023-11-19T02:48:00;6.10;1.00
318;DHT22;146;53.448;10.228;2023-11-19T02:50:28;6.20;1.00
318;DHT22;146;53.448;10.228;2023-11-19T02:53:04;6.10;1.00
318;DHT22;146;53.448;10.228;2023-11-19T02:55:35;6.10;1.00
318;DHT22;146;53.448;10.228;2023-11-19T02:58:07;6.10;1.00
318;DHT22;146;53.448;10.228;2023-11-19T03:00:45;6.10;1.00
318;DHT22;146;53.448;10.228;2023-11-19T03:03:17;6.10;1.00
318;DHT22;146;53.448;10.228;2023-11-19T03:05:46;6.10;1.00
318;DHT22;146;53.448;10.228;2023-11-19T03:08:21;6.20;1.00
318;DHT22;146;53.448;10.228;2023-11-19T03:10:49;6.10;1.00
318;DHT22;146;53.448;10.228;2023-11-19T03:13:23;6.20;1.00
318;DHT22;146;53.448;10.228;2023-11-19T03:15:49;6.30;1.00
318;DHT22;146;53.448;10.228;2023-11-19T03:18:17;6.20;1.00
318;DHT22;146;53.448;10.228;2023-11-19T03:20:43;6.20;1.00
318;DHT22;146;53.448;10.228;2023-11-19T03:23:10;6.20;1.00
318;DHT22;146;53.448;10.228;2023-11-19T03:25:37;6.40;1.00
318;DHT22;146;53.448;10.228;2023-11-19T03:28:04;6.40;1.00
318;DHT22;146;53.448;10.228;2023-11-19T03:30:36;6.40;1.00
318;DHT22;146;53.448;10.228;2023-11-19T03:33:03;6.40;1.00
318;DHT22;146;53.448;10.228;2023-11-19T03:35:31;6.30;1.00
318;DHT22;146;53.448;10.228;2023-11-19T03:37:58;6.40;1.00
318;DHT22;146;53.448;10.228;2023-11-19T03:40:25;6.50;1.00
318;DHT22;146;53.448;10.228;2023-11-19T03:42:52;6.40;1.00
318;DHT22;146;53.448;10.228;2023-11-19T03:45:21;6.40;1.00
318;DHT22;146;53.448;10.228;2023-11-19T03:47:49;6.40;1.00
318;DHT22;146;53.448;10.228;2023-11-19T03:50:16;6.50;1.00
318;DHT22;146;53.448;10.228;2023-11-19T03:52:49;6.50;1.00
318;DHT22;146;53.448;10.228;2023-11-19T03:55:16;6.60;1.00
318;DHT22;146;53.448;10.228;2023-11-19T03:57:42;6.60;1.00
318;DHT22;146;53.448;10.228;2023-11-19T04:00:12;6.60;1.00
318;DHT22;146;53.448;10.228;2023-11-19T04:02:40;6.70;1.00
318;DHT22;146;53.448;10.228;2023-11-19T04:05:08;6.70;1.00
318;DHT22;146;53.448;10.228;2023-11-19T04:07:39;6.80;1.00
318;DHT22;146;53.448;10.228;2023-11-19T04:10:09;6.90;1.00
318;DHT22;146;53.448;10.228;2023-11-19T04:12:36;6.90;1.00
318;DHT22;146;53.448;10.228;2023-11-19T04:15:03;6.90;1.00
318;DHT22;146;53.448;10.228;2023-11-19T04:17:31;6.90;1.00
318;DHT22;146;53.448;10.228;2023-11-19T04:20:01;6.90;1.00
318;DHT22;146;53.448;10.228;2023-11-19T04:22:37;6.90;1.00
318;DHT22;146;53.448;10.228;2023-11-19T04:25:04;7.00;1.00
318;DHT22;146;53.448;10.228;2023-11-19T04:27:37;6.90;1.00
318;DHT22;146;53.448;10.228;2023-11-19T04:30:13;7.00;1.00
318;DHT22;146;53.448;10.228;2023-11-19T04:32:40;7.00;1.00
318;DHT22;146;53.448;10.228;2023-11-19T04:35:14;6.90;1.00
318;DHT22;146;53.448;10.228;2023-11-19T04:37:43;7.00;1.00
318;DHT22;146;53.448;10.228;2023-11-19T04:40:13;7.00;1.00
318;DHT22;146;53.448;10.228;2023-11-19T04:42:40;7.10;1.00
318;DHT22;146;53.448;10.228;2023-11-19T04:45:07;7.20;1.00
318;DHT22;146;53.448;10.228;2023-11-19T04:47:38;7.30;1.00
318;DHT22;146;53.448;10.228;2023-11-19T04:50:06;7.30;1.00
318;DHT22;146;53.448;10.228;2023-11-19T04:52:37;7.40;1.00
318;DHT22;146;53.448;10.228;2023-11-19T04:55:07;7.50;1.00
318;DHT22;146;53.448;10.228;2023-11-19T04:57:37;7.50;1.00
318;DHT22;146;53.448;10.228;2023-11-19T05:00:04;7.40;1.00
318;DHT22;146;53.448;10.228;2023-11-19T05:02:33;7.50;1.00
318;DHT22;146;53.448;10.228;2023-11-19T05:05:03;7.60;1.00
318;DHT22;146;53.448;10.228;2023-11-19T05:07:30;7.70;1.00
318;DHT22;146;53.448;10.228;2023-11-19T05:09:57;7.80;1.00
318;DHT22;146;53.448;10.228;2023-11-19T05:12:27;7.90;1.00
318;DHT22;146;53.448;10.228;2023-11-19T05:14:54;8.10;1.00
318;DHT22;146;53.448;10.228;2023-11-19T05:17:21;8.20;1.00
318;DHT22;146;53.448;10.228;2023-11-19T05:19:48;8.30;1.00
318;DHT22;146;53.448;10.228;2023-11-19T05:22:18;8.30;1.00
318;DHT22;146;53.448;10.228;2023-11-19T05:24:46;8.30;1.00
318;DHT22;146;53.448;10.228;2023-11-19T05:27:17;8.30;1.00
318;DHT22;146;53.448;10.228;2023-11-19T05:29:45;8.30;1.00
318;DHT22;146;53.448;10.228;2023-11-19T05:32:17;8.30;1.00
318;DHT22;146;53.448;10.228;2023-11-19T05:34:43;8.40;1.00
318;DHT22;146;53.448;10.228;2023-11-19T05:37:10;8.40;1.00
318;DHT22;146;53.448;10.228;2023-11-19T05:39:37;8.40;1.00
318;DHT22;146;53.448;10.228;2023-11-19T05:42:07;8.40;1.00
318;DHT22;146;53.448;10.228;2023-11-19T05:44:35;8.60;1.00
318;DHT22;146;53.448;10.228;2023-11-19T05:47:06;8.60;1.00
318;DHT22;146;53.448;10.228;2023-11-19T05:49:33;8.80;1.00
318;DHT22;146;53.448;10.228;2023-11-19T05:52:08;8.90;1.00
318;DHT22;146;53.448;10.228;2023-11-19T05:54:38;9.00;1.00
318;DHT22;146;53.448;10.228;2023-11-19T05:57:10;9.10;1.00
318;DHT22;146;53.448;10.228;2023-11-19T05:59:39;9.00;1.00
318;DHT22;146;53.448;10.228;2023-11-19T06:02:07;9.10;1.00
318;DHT22;146;53.448;10.228;2023-11-19T06:04:34;9.20;1.00
318;DHT22;146;53.448;10.228;2023-11-19T06:07:03;9.30;1.00
318;DHT22;146;53.448;10.228;2023-11-19T06:09:30;9.30;1.00
318;DHT22;146;53.448;10.228;2023-11-19T06:11:59;9.40;1.00
318;DHT22;146;53.448;10.228;2023-11-19T06:14:27;9.40;1.00
318;DHT22;146;53.448;10.228;2023-11-19T06:16:54;9.60;1.00
318;DHT22;146;53.448;10.228;2023-11-19T06:19:25;9.60;1.00
318;DHT22;146;53.448;10.228;2023-11-19T06:21:52;9.70;1.00
318;DHT22;146;53.448;10.228;2023-11-19T06:24:19;9.70;1.00
318;DHT22;146;53.448;10.228;2023-11-19T06:26:46;9.80;1.00
318;DHT22;146;53.448;10.228;2023-11-19T06:29:15;9.90;1.00
318;DHT22;146;53.448;10.228;2023-11-19T06:31:45;10.00;1.00
318;DHT22;146;53.448;10.228;2023-11-19T06:34:12;10.00;1.00
318;DHT22;146;53.448;10.228;2023-11-19T06:36:40;10.10;1.00
318;DHT22;146;53.448;10.228;2023-11-19T06:39:18;10.30;1.00
318;DHT22;146;53.448;10.228;2023-11-19T06:41:45;10.40;1.00
318;DHT22;146;53.448;10.228;2023-11-19T06:44:12;10.50;1.00
318;DHT22;146;53.448;10.228;2023-11-19T06:46:39;10.50;1.00
318;DHT22;146;53.448;10.228;2023-11-19T06:49:06;10.60;1.00
318;DHT22;146;53.448;10.228;2023-11-19T06:51:42;10.60;1.00
318;DHT22;146;53.448;10.228;2023-11-19T06:54:09;10.60;1.00
318;DHT22;146;53.448;10.228;2023-11-19T06:56:39;10.70;1.00
318;DHT22;146;53.448;10.228;2023-11-19T06:59:13;10.80;1.00
318;DHT22;146;53.448;10.228;2023-11-19T07:01:39;10.90;1.00
318;DHT22;146;53.448;10.228;2023-11-19T07:04:10;10.90;1.00
318;DHT22;146;53.448;10.228;2023-11-19T07:06:40;11.00;1.00
318;DHT22;146;53.448;10.228;2023-11-19T07:09:11;11.10;1.00
318;DHT22;146;53.448;10.228;2023-11-19T07:11:39;11.20;1.00
318;DHT22;146;53.448;10.228;2023-11-19T07:14:07;11.30;1.00
318;DHT22;146;53.448;10.228;2023-11-19T07:16:34;11.20;1.00
318;DHT22;146;53.448;10.228;2023-11-19T07:19:03;11.20;1.00
318;DHT22;146;53.448;10.228;2023-11-19T07:21:30;11.30;1.00
318;DHT22;146;53.448;10.228;2023-11-19T07:23:58;11.40;1.00
318;DHT22;146;53.448;10.228;2023-11-19T07:26:26;11.40;1.00
318;DHT22;146;53.448;10.228;2023-11-19T07:28:53;11.30;1.00
318;DHT22;146;53.448;10.228;2023-11-19T07:31:24;11.30;1.00
318;DHT22;146;53.448;10.228;2023-11-19T07:33:50;11.30;1.00
318;DHT22;146;53.448;10.228;2023-11-19T07:36:17;11.30;1.00
318;DHT22;146;53.448;10.228;2023-11-19T07:38:45;11.30;1.00
318;DHT22;146;53.448;10.228;2023-11-19T07:41:14;11.40;1.00
318;DHT22;146;53.448;10.228;2023-11-19T07:43:44;11.40;1.00
318;DHT22;146;53.448;10.228;2023-11-19T07:46:12;11.40;1.00
318;DHT22;146;53.448;10.228;2023-11-19T07:48:42;11.40;1.00
318;DHT22;146;53.448;10.228;2023-11-19T07:51:12;11.50;1.00
318;DHT22;146;53.448;10.228;2023-11-19T07:53:39;11.60;1.00
318;DHT22;146;53.448;10.228;2023-11-19T07:56:09;11.50;1.00
318;DHT22;146;53.448;10.228;2023-11-19T07:58:35;11.40;1.00
318;DHT22;146;53.448;10.228;2023-11-19T08:01:05;11.50;1.00
318;DHT22;146;53.448;10.228;2023-11-19T08:03:32;11.50;1.00
318;DHT22;146;53.448;10.228;2023-11-19T08:06:10;11.50;1.00
318;DHT22;146;53.448;10.228;2023-11-19T08:08:46;11.50;1.00
318;DHT22;146;53.448;10.228;2023-11-19T08:11:16;11.50;1.00
318;DHT22;146;53.448;10.228;2023-11-19T08:13:48;11.60;1.00
318;DHT22;146;53.448;10.228;2023-11-19T08:16:16;11.50;1.00
318;DHT22;146;53.448;10.228;2023-11-19T08:18:46;11.50;1.00
318;DHT22;146;53.448;10.228;2023-11-19T08:21:13;11.50;1.00
318;DHT22;146;53.448;10.228;2023-11-19T08:23:40;11.50;1.00
318;DHT22;146;53.448;10.228;2023-11-19T08:26:07;11.50;1.00
318;DHT22;146;53.448;10.228;2023-11-19T08:28:40;11.60;1.00
318;DHT22;146;53.448;10.228;2023-11-19T08:31:07;11.50;1.00
318;DHT22;146;53.448;10.228;2023-11-19T08:33:41;11.50;1.00
318;DHT22;146;53.448;10.228;2023-11-19T08:36:08;11.50;1.00
318;DHT22;146;53.448;10.228;2023-11-19T08:38:36;11.50;1.00
318;DHT22;146;53.448;10.228;2023-11-19T08:41:03;11.50;1.00
318;DHT22;146;53.448;10.228;2023-11-19T08:43:38;11.50;1.00
318;DHT22;146;53.448;10.228;2023-11-19T08:46:12;11.40;1.00
318;DHT22;146;53.448;10.228;2023-11-19T08:48:40;11.50;1.00
318;DHT22;146;53.448;10.228;2023-11-19T08:51:21;11.50;1.00
318;DHT22;146;53.448;10.228;2023-11-19T08:53:53;11.40;1.00
318;DHT22;146;53.448;10.228;2023-11-19T08:56:22;11.40;1.00
318;DHT22;146;53.448;10.228;2023-11-19T08:58:52;11.50;1.00
318;DHT22;146;53.448;10.228;2023-11-19T09:01:19;11.50;1.00
318;DHT22;146;53.448;10.228;2023-11-19T09:03:47;11.50;1.00
318;DHT22;146;53.448;10.228;2023-11-19T09:06:14;11.60;1.00
318;DHT22;146;53.448;10.228;2023-11-19T09:08:43;11.70;1.00
318;DHT22;146;53.448;10.228;2023-11-19T09:11:13;11.80;1.00
318;DHT22;146;53.448;10.228;2023-11-19T09:13:43;11.80;1.00
318;DHT22;146;53.448;10.228;2023-11-19T09:16:11;11.90;1.00
318;DHT22;146;53.448;10.228;2023-11-19T09:18:38;11.80;1.00
318;DHT22;146;53.448;10.228;2023-11-19T09:21:06;11.90;1.00
318;DHT22;146;53.448;10.228;2023-11-19T09:23:33;12.10;1.00
318;DHT22;146;53.448;10.228;2023-11-19T09:26:05;12.00;1.00
318;DHT22;146;53.448;10.228;2023-11-19T09:28:32;11.90;1.00
318;DHT22;146;53.448;10.228;2023-11-19T09:30:58;11.90;1.00
318;DHT22;146;53.448;10.228;2023-11-19T09:33:25;11.90;1.00
318;DHT22;146;53.448;10.228;2023-11-19T09:35:52;11.90;1.00
318;DHT22;146;53.448;10.228;2023-11-19T09:38:21;11.90;1.00
318;DHT22;146;53.448;10.228;2023-11-19T09:40:47;11.80;1.00
318;DHT22;146;53.448;10.228;2023-11-19T09:43:15;11.80;1.00
318;DHT22;146;53.448;10.228;2023-11-19T09:45:48;11.80;1.00
318;DHT22;146;53.448;10.228;2023-11-19T09:48:17;11.80;1.00
318;DHT22;146;53.448;10.228;2023-11-19T09:50:45;11.80;1.00
318;DHT22;146;53.448;10.228;2023-11-19T09:53:13;11.90;1.00
318;DHT22;146;53.448;10.228;2023-11-19T09:55:45;11.80;1.00
318;DHT22;146;53.448;10.228;2023-11-19T09:58:14;11.80;1.00
318;DHT22;146;53.448;10.228;2023-11-19T10:00:41;11.80;1.00
318;DHT22;146;53.448;10.228;2023-11-19T10:03:11;11.70;1.00
318;DHT22;146;53.448;10.228;2023-11-19T10:05:38;11.70;1.00
318;DHT22;146;53.448;10.228;2023-11-19T10:08:05;11.90;1.00
318;DHT22;146;53.448;10.228;2023-11-19T10:10:33;11.90;1.00
318;DHT22;146;53.448;10.228;2023-11-19T10:13:02;11.90;1.00
318;DHT22;146;53.448;10.228;2023-11-19T10:15:32;12.00;1.00
318;DHT22;146;53.448;10.228;2023-11-19T10:18:04;12.00;1.00
318;DHT22;146;53.448;10.228;2023-11-19T10:20:35;12.00;1.00
318;DHT22;146;53.448;10.228;2023-11-19T10:23:03;12.10;1.00
318;DHT22;146;53.448;10.228;2023-11-19T10:25:30;12.10;1.00
318;DHT22;146;53.448;10.228;2023-11-19T10:27:57;12.10;1.00
318;DHT22;146;53.448;10.228;2023-11-19T10:30:26;12.10;1.00
318;DHT22;146;53.448;10.228;2023-11-19T10:33:05;12.30;1.00
318;DHT22;146;53.448;10.228;2023-11-19T10:35:33;12.30;1.00
318;DHT22;146;53.448;10.228;2023-11-19T10:38:00;12.30;1.00
318;DHT22;146;53.448;10.228;2023-11-19T10:40:38;12.20;1.00
318;DHT22;146;53.448;10.228;2023-11-19T10:43:06;12.10;1.00
318;DHT22;146;53.448;10.228;2023-11-19T10:45:38;12.00;1.00
318;DHT22;146;53.448;10.228;2023-11-19T10:48:06;12.00;1.00
318;DHT22;146;53.448;10.228;2023-11-19T10:50:34;11.90;1.00
318;DHT22;146;53.448;10.228;2023-11-19T10:53:03;11.80;1.00
318;DHT22;146;53.448;10.228;2023-11-19T10:55:32;11.70;1.00
318;DHT22;146;53.448;10.228;2023-11-19T10:58:01;11.60;1.00
318;DHT22;146;53.448;10.228;2023-11-19T11:00:38;11.60;1.00
318;DHT22;146;53.448;10.228;2023-11-19T11:03:11;11.50;1.00
318;DHT22;146;53.448;10.228;2023-11-19T11:05:39;11.50;1.00
318;DHT22;146;53.448;10.228;2023-11-19T11:08:07;11.50;1.00
318;DHT22;146;53.448;10.228;2023-11-19T11:10:39;11.50;1.00
318;DHT22;146;53.448;10.228;2023-11-19T11:13:08;11.40;1.00
318;DHT22;146;53.448;10.228;2023-11-19T11:15:37;11.40;1.00
318;DHT22;146;53.448;10.228;2023-11-19T11:18:10;11.40;1.00
318;DHT22;146;53.448;10.228;2023-11-19T11:20:37;11.40;1.00
318;DHT22;146;53.448;10.228;2023-11-19T11:26:32;11.40;1.00
318;DHT22;146;53.448;10.228;2023-11-19T11:29:10;11.50;1.00
318;DHT22;146;53.448;10.228;2023-11-19T11:31:48;11.60;1.00
318;DHT22;146;53.448;10.228;2023-11-19T11:34:44;11.70;1.00
318;DHT22;146;53.448;10.228;2023-11-19T11:37:18;11.60;1.00
318;DHT22;146;53.448;10.228;2023-11-19T11:39:46;11.60;1.00
318;DHT22;146;53.448;10.228;2023-11-19T11:42:33;11.60;1.00
318;DHT22;146;53.448;10.228;2023-11-19T11:45:01;11.70;1.00
318;DHT22;146;53.448;10.228;2023-11-19T11:50:36;11.60;1.00
318;DHT22;146;53.448;10.228;2023-11-19T11:53:13;11.70;1.00
318;DHT22;146;53.448;10.228;2023-11-19T11:55:55;11.60;1.00
318;DHT22;146;53.448;10.228;2023-11-19T11:58:30;11.70;1.00
318;DHT22;146;53.448;10.228;2023-11-19T12:00:58;11.80;1.00
318;DHT22;146;53.448;10.228;2023-11-19T12:03:27;12.00;1.00
318;DHT22;146;53.448;10.228;2023-11-19T12:05:56;12.10;1.00
318;DHT22;146;53.448;10.228;2023-11-19T12:08:35;12.10;1.00
318;DHT22;146;53.448;10.228;2023-11-19T12:11:02;12.10;1.00
318;DHT22;146;53.448;10.228;2023-11-19T12:13:46;12.10;1.00
318;DHT22;146;53.448;10.228;2023-11-19T12:16:13;12.10;1.00
318;DHT22;146;53.448;10.228;2023-11-19T12:18:40;12.10;1.00
318;DHT22;146;53.448;10.228;2023-11-19T12:21:11;12.20;1.00
318;DHT22;146;53.448;10.228;2023-11-19T12:23:45;12.30;1.00
318;DHT22;146;53.448;10.228;2023-11-19T12:26:34;12.40;1.00
318;DHT22;146;53.448;10.228;2023-11-19T12:29:01;12.40;1.00
318;DHT22;146;53.448;10.228;2023-11-19T12:31:32;12.40;1.00
318;DHT22;146;53.448;10.228;2023-11-19T12:34:10;12.40;1.00
318;DHT22;146;53.448;10.228;2023-11-19T12:36:40;12.40;1.00
318;DHT22;146;53.448;10.228;2023-11-19T12:39:08;12.40;1.00
318;DHT22;146;53.448;10.228;2023-11-19T12:41:51;12.40;1.00
318;DHT22;146;53.448;10.228;2023-11-19T12:44:18;12.40;1.00
318;DHT22;146;53.448;10.228;2023-11-19T12:46:45;12.40;1.00
318;DHT22;146;53.448;10.228;2023-11-19T12:49:12;12.50;1.00
318;DHT22;146;53.448;10.228;2023-11-19T12:51:42;12.60;1.00
318;DHT22;146;53.448;10.228;2023-11-19T12:54:09;12.50;1.00
318;DHT22;146;53.448;10.228;2023-11-19T12:56:36;12.50;1.00
318;DHT22;146;53.448;10.228;2023-11-19T12:59:10;12.60;1.00
318;DHT22;146;53.448;10.228;2023-11-19T13:01:38;12.50;1.00
318;DHT22;146;53.448;10.228;2023-11-19T13:04:18;12.60;1.00
318;DHT22;146;53.448;10.228;2023-11-19T13:06:47;12.60;1.00
318;DHT22;146;53.448;10.228;2023-11-19T13:09:24;12.70;1.00
318;DHT22;146;53.448;10.228;2023-11-19T13:11:51;12.60;1.00
318;DHT22;146;53.448;10.228;2023-11-19T13:14:36;12.60;1.00
318;DHT22;146;53.448;10.228;2023-11-19T13:17:03;12.50;1.00
318;DHT22;146;53.448;10.228;2023-11-19T13:19:33;12.40;1.00
318;DHT22;146;53.448;10.228;2023-11-19T13:22:02;12.40;1.00
318;DHT22;146;53.448;10.228;2023-11-19T13:24:29;12.40;1.00
318;DHT22;146;53.448;10.228;2023-11-19T13:26:56;12.40;1.00
318;DHT22;146;53.448;10.228;2023-11-19T13:29:24;12.50;1.00
318;DHT22;146;53.448;10.228;2023-11-19T13:31:50;12.50;1.00
318;DHT22;146;53.448;10.228;2023-11-19T13:34:20;12.60;1.00
318;DHT22;146;53.448;10.228;2023-11-19T13:36:53;12.60;1.00
318;DHT22;146;53.448;10.228;2023-11-19T13:39:21;12.50;1.00
318;DHT22;146;53.448;10.228;2023-11-19T13:41:49;12.40;1.00
318;DHT22;146;53.448;10.228;2023-11-19T13:44:19;12.50;1.00
318;DHT22;146;53.448;10.228;2023-11-19T13:46:46;12.50;1.00
318;DHT22;146;53.448;10.228;2023-11-19T13:49:16;12.70;1.00
318;DHT22;146;53.448;10.228;2023-11-19T13:51:44;12.60;1.00
318;DHT22;146;53.448;10.228;2023-11-19T13:54:18;12.60;1.00
318;DHT22;146;53.448;10.228;2023-11-19T13:56:49;12.60;1.00
318;DHT22;146;53.448;10.228;2023-11-19T13:59:19;12.60;1.00
318;DHT22;146;53.448;10.228;2023-11-19T14:01:46;12.70;1.00
318;DHT22;146;53.448;10.228;2023-11-19T14:04:13;12.60;1.00
318;DHT22;146;53.448;10.228;2023-11-19T14:06:40;12.60;1.00
318;DHT22;146;53.448;10.228;2023-11-19T14:09:07;12.50;1.00
318;DHT22;146;53.448;10.228;2023-11-19T14:11:33;12.50;1.00
318;DHT22;146;53.448;10.228;2023-11-19T14:14:02;12.50;1.00
318;DHT22;146;53.448;10.228;2023-11-19T14:16:28;12.40;1.00
318;DHT22;146;53.448;10.228;2023-11-19T14:18:55;12.60;1.00
318;DHT22;146;53.448;10.228;2023-11-19T14:21:22;12.50;1.00
318;DHT22;146;53.448;10.228;2023-11-19T14:23:53;12.60;1.00
318;DHT22;146;53.448;10.228;2023-11-19T14:26:20;12.70;1.00
318;DHT22;146;53.448;10.228;2023-11-19T14:28:47;12.60;1.00
318;DHT22;146;53.448;10.228;2023-11-19T14:31:18;12.50;1.00
318;DHT22;146;53.448;10.228;2023-11-19T14:33:45;12.40;1.00
318;DHT22;146;53.448;10.228;2023-11-19T14:36:11;12.50;1.00
318;DHT22;146;53.448;10.228;2023-11-19T14:38:38;12.50;1.00
318;DHT22;146;53.448;10.228;2023-11-19T14:41:05;12.50;1.00
318;DHT22;146;53.448;10.228;2023-11-19T14:43:33;12.50;1.00
318;DHT22;146;53.448;10.228;2023-11-19T14:46:00;12.40;1.00
318;DHT22;146;53.448;10.228;2023-11-19T14:48:32;12.30;1.00
318;DHT22;146;53.448;10.228;2023-11-19T14:51:02;12.30;1.00
318;DHT22;146;53.448;10.228;2023-11-19T14:53:29;12.30;1.00
318;DHT22;146;53.448;10.228;2023-11-19T14:55:55;12.30;1.00
318;DHT22;146;53.448;10.228;2023-11-19T14:58:22;12.30;1.00
318;DHT22;146;53.448;10.228;2023-11-19T15:00:54;12.30;1.00
318;DHT22;146;53.448;10.228;2023-11-19T15:03:21;12.20;1.00
318;DHT22;146;53.448;10.228;2023-11-19T15:05:49;12.10;1.00
318;DHT22;146;53.448;10.228;2023-11-19T15:08:16;12.00;1.00
318;DHT22;146;53.448;10.228;2023-11-19T15:10:43;12.10;1.00
318;DHT22;146;53.448;10.228;2023-11-19T15:13:10;12.10;1.00
318;DHT22;146;53.448;10.228;2023-11-19T15:15:43;12.00;1.00
318;DHT22;146;53.448;10.228;2023-11-19T15:18:10;12.00;1.00
318;DHT22;146;53.448;10.228;2023-11-19T15:20:57;12.00;1.00
318;DHT22;146;53.448;10.228;2023-11-19T15:23:43;11.80;1.00
318;DHT22;146;53.448;10.228;2023-11-19T15:26:10;11.60;1.00
318;DHT22;146;53.448;10.228;2023-11-19T15:28:40;11.50;1.00
318;DHT22;146;53.448;10.228;2023-11-19T15:31:07;11.40;1.00
318;DHT22;146;53.448;10.228;2023-11-19T15:33:35;11.40;1.00
318;DHT22;146;53.448;10.228;2023-11-19T15:36:04;11.40;1.00
318;DHT22;146;53.448;10.228;2023-11-19T15:38:33;11.50;1.00
318;DHT22;146;53.448;10.228;2023-11-19T15:41:06;11.60;1.00
318;DHT22;146;53.448;10.228;2023-11-19T15:43:36;11.60;1.00
318;DHT22;146;53.448;10.228;2023-11-19T15:46:09;11.60;1.00
318;DHT22;146;53.448;10.228;2023-11-19T15:48:39;11.60;1.00
318;DHT22;146;53.448;10.228;2023-11-19T15:51:10;11.60;1.00
318;DHT22;146;53.448;10.228;2023-11-19T15:53:37;11.60;1.00
318;DHT22;146;53.448;10.228;2023-11-19T15:56:05;11.70;1.00
318;DHT22;146;53.448;10.228;2023-11-19T15:58:32;11.60;1.00
318;DHT22;146;53.448;10.228;2023-11-19T16:01:05;11.50;1.00
318;DHT22;146;53.448;10.228;2023-11-19T16:03:33;11.50;1.00
318;DHT22;146;53.448;10.228;2023-11-19T16:06:11;11.50;1.00
318;DHT22;146;53.448;10.228;2023-11-19T16:08:42;11.60;1.00
318;DHT22;146;53.448;10.228;2023-11-19T16:11:09;11.50;1.00
318;DHT22;146;53.448;10.228;2023-11-19T16:13:38;11.50;1.00
318;DHT22;146;53.448;10.228;2023-11-19T16:16:05;11.50;1.00
318;DHT22;146;53.448;10.228;2023-11-19T16:18:32;11.40;1.00
318;DHT22;146;53.448;10.228;2023-11-19T16:21:02;11.40;1.00
318;DHT22;146;53.448;10.228;2023-11-19T16:23:29;11.40;1.00
318;DHT22;146;53.448;10.228;2023-11-19T16:25:57;11.40;1.00
318;DHT22;146;53.448;10.228;2023-11-19T16:28:27;11.40;1.00
318;DHT22;146;53.448;10.228;2023-11-19T16:30:59;11.40;1.00
318;DHT22;146;53.448;10.228;2023-11-19T16:33:26;11.40;1.00
318;DHT22;146;53.448;10.228;2023-11-19T16:35:55;11.40;1.00
318;DHT22;146;53.448;10.228;2023-11-19T16:42:06;11.60;1.00
318;DHT22;146;53.448;10.228;2023-11-19T16:44:33;11.60;1.00
318;DHT22;146;53.448;10.228;2023-11-19T16:47:03;11.50;1.00
318;DHT22;146;53.448;10.228;2023-11-19T16:49:33;11.60;1.00
318;DHT22;146;53.448;10.228;2023-11-19T16:52:03;11.60;1.00
318;DHT22;146;53.448;10.228;2023-11-19T16:54:35;11.60;1.00
318;DHT22;146;53.448;10.228;2023-11-19T16:57:03;11.70;1.00
318;DHT22;146;53.448;10.228;2023-11-19T16:59:35;11.60;1.00
318;DHT22;146;53.448;10.228;2023-11-19T17:02:02;11.50;1.00
318;DHT22;146;53.448;10.228;2023-11-19T17:04:31;11.40;1.00
318;DHT22;146;53.448;10.228;2023-11-19T17:06:58;11.30;1.00
318;DHT22;146;53.448;10.228;2023-11-19T17:09:25;11.20;1.00